createdAt,value
2018-02-08T00:01:23.108Z,9.70
2018-02-08T00:03:50.774Z,9.66
2018-02-08T00:06:18.344Z,9.68
2018-02-08T00:08:45.897Z,9.66
2018-02-08T00:11:13.627Z,9.65
2018-02-08T00:13:41.189Z,9.59
2018-02-08T00:16:08.744Z,9.56
2018-02-08T00:18:36.490Z,9.53
2018-02-08T00:21:04.046Z,9.51
2018-02-08T00:23:31.647Z,9.52
2018-02-08T00:25:59.203Z,9.49
2018-02-08T00:28:26.742Z,9.55
2018-02-08T00:30:54.312Z,9.62
2018-02-08T00:33:21.888Z,9.68
2018-02-08T00:35:49.517Z,9.73
2018-02-08T00:38:17.074Z,9.77
2018-02-08T00:40:44.736Z,9.78
2018-02-08T00:43:12.301Z,9.80
2018-02-08T00:45:39.856Z,9.78
2018-02-08T00:48:07.421Z,9.75
2018-02-08T00:50:35.001Z,9.73
2018-02-08T00:53:02.539Z,9.70
2018-02-08T00:55:30.097Z,9.64
2018-02-08T00:57:57.651Z,9.63
2018-02-08T01:00:25.235Z,9.66
2018-02-08T01:02:52.780Z,9.65
2018-02-08T01:05:20.610Z,9.62
2018-02-08T01:07:48.323Z,9.69
2018-02-08T01:10:15.879Z,9.83
2018-02-08T01:12:43.446Z,9.92
2018-02-08T01:15:11.172Z,9.94
2018-02-08T01:17:38.748Z,9.85
2018-02-08T01:20:06.534Z,9.62
2018-02-08T01:22:34.354Z,9.38
2018-02-08T01:25:01.927Z,9.13
2018-02-08T01:27:29.481Z,8.90
2018-02-08T01:29:57.206Z,8.70
2018-02-08T01:32:24.766Z,8.52
2018-02-08T01:34:52.542Z,8.11
2018-02-08T01:37:20.262Z,7.64
2018-02-08T01:39:47.979Z,7.11
2018-02-08T01:42:15.558Z,6.82
2018-02-08T01:44:43.185Z,6.48
2018-02-08T01:47:10.804Z,5.98
2018-02-08T01:49:46.575Z,5.74
2018-02-08T01:52:14.598Z,5.59
2018-02-08T01:54:42.154Z,5.56
2018-02-08T01:57:09.709Z,5.54
2018-02-08T01:59:37.267Z,5.46
2018-02-08T02:02:04.829Z,5.43
2018-02-08T02:04:32.393Z,5.45
2018-02-08T02:06:59.947Z,5.56
2018-02-08T02:09:27.557Z,5.51
2018-02-08T02:11:55.341Z,5.49
2018-02-08T02:14:23.038Z,5.46
2018-02-08T02:16:50.598Z,5.41
2018-02-08T02:19:18.188Z,5.30
2018-02-08T02:21:46.016Z,5.23
2018-02-08T02:24:13.585Z,5.26
2018-02-08T02:26:41.258Z,5.30
2018-02-08T02:29:09.067Z,5.33
2018-02-08T02:31:36.639Z,5.39
2018-02-08T02:34:04.218Z,5.48
2018-02-08T02:36:31.778Z,5.55
2018-02-08T02:38:59.356Z,5.57
2018-02-08T02:41:27.158Z,5.55
2018-02-08T02:43:54.799Z,5.53
2018-02-08T02:46:22.593Z,5.48
2018-02-08T02:48:50.155Z,5.43
2018-02-08T02:51:17.721Z,5.35
2018-02-08T02:53:45.421Z,5.30
2018-02-08T02:56:12.989Z,5.25
2018-02-08T02:58:40.694Z,5.28
2018-02-08T03:01:08.320Z,5.29
2018-02-08T03:03:36.034Z,5.35
2018-02-08T03:06:03.839Z,5.41
2018-02-08T03:08:31.397Z,5.43
2018-02-08T03:10:59.173Z,5.41
2018-02-08T03:13:26.738Z,5.39
2018-02-08T03:15:54.404Z,5.36
2018-02-08T03:18:22.017Z,5.36
2018-02-08T03:20:49.569Z,5.38
2018-02-08T03:23:17.125Z,5.36
2018-02-08T03:25:44.879Z,5.31
2018-02-08T03:28:12.437Z,5.28
2018-02-08T03:33:42.200Z,5.21
2018-02-08T03:36:10.022Z,5.19
2018-02-08T03:38:37.583Z,5.22
2018-02-08T03:41:05.145Z,5.25
2018-02-08T03:43:32.714Z,5.30
2018-02-08T03:46:00.295Z,5.33
2018-02-08T03:48:27.870Z,5.28
2018-02-08T03:50:55.425Z,5.20
2018-02-08T03:53:23.256Z,5.16
2018-02-08T03:55:51.017Z,5.11
2018-02-08T03:58:18.573Z,5.16
2018-02-08T04:00:46.133Z,5.14
2018-02-08T04:03:13.970Z,5.17
2018-02-08T04:05:41.663Z,5.15
2018-02-08T04:08:09.509Z,5.18
2018-02-08T04:10:37.326Z,5.22
2018-02-08T04:13:04.985Z,5.23
2018-02-08T04:15:32.541Z,5.25
2018-02-08T04:18:00.109Z,5.25
2018-02-08T04:20:27.897Z,5.32
2018-02-08T04:22:55.465Z,5.33
2018-02-08T04:25:23.024Z,5.33
2018-02-08T04:27:50.852Z,5.38
2018-02-08T04:30:18.573Z,5.42
2018-02-08T04:32:46.125Z,5.48
2018-02-08T04:35:13.695Z,5.56
2018-02-08T04:37:41.425Z,5.71
2018-02-08T04:40:20.870Z,5.76
2018-02-08T04:43:00.269Z,5.84
2018-02-08T04:45:39.653Z,5.90
2018-02-08T04:48:08.302Z,5.96
2018-02-08T04:50:36.143Z,6.04
2018-02-08T04:53:03.859Z,6.11
2018-02-08T04:55:31.778Z,6.19
2018-02-08T04:57:59.496Z,6.15
2018-02-08T05:00:27.049Z,6.16
2018-02-08T05:02:57.254Z,6.15
2018-02-08T05:05:24.828Z,6.13
2018-02-08T05:07:52.677Z,6.16
2018-02-08T05:10:20.236Z,6.17
2018-02-08T05:12:47.922Z,6.04
2018-02-08T05:15:15.732Z,5.96
2018-02-08T05:17:43.354Z,5.88
2018-02-08T05:20:10.974Z,5.80
2018-02-08T05:22:38.612Z,5.73
2018-02-08T05:25:06.174Z,5.64
2018-02-08T05:27:33.922Z,5.54
2018-02-08T05:30:01.484Z,5.49
2018-02-08T05:32:29.205Z,5.54
2018-02-08T05:34:56.763Z,5.53
2018-02-08T05:37:24.493Z,5.47
2018-02-08T05:39:52.314Z,5.45
2018-02-08T05:42:20.035Z,5.49
2018-02-08T05:44:47.611Z,5.51
2018-02-08T05:47:15.173Z,5.52
2018-02-08T05:49:42.898Z,5.58
2018-02-08T05:52:10.480Z,5.58
2018-02-08T05:54:38.077Z,5.62
2018-02-08T05:57:05.838Z,5.64
2018-02-08T05:59:33.650Z,5.59
2018-02-08T06:02:01.214Z,5.54
2018-02-08T06:04:28.773Z,5.57
2018-02-08T06:06:56.401Z,5.63
2018-02-08T06:09:23.970Z,5.74
2018-02-08T06:11:51.535Z,5.84
2018-02-08T06:14:19.126Z,5.95
2018-02-08T06:16:46.846Z,5.96
2018-02-08T06:19:14.405Z,6.01
2018-02-08T06:21:41.981Z,6.13
2018-02-08T06:24:09.542Z,6.19
2018-02-08T06:26:37.133Z,6.24
2018-02-08T06:29:04.855Z,6.43
2018-02-08T06:31:32.405Z,6.64
2018-02-08T06:34:00.205Z,6.65
2018-02-08T06:36:27.903Z,6.75
2018-02-08T06:38:55.466Z,6.82
2018-02-08T06:41:23.034Z,6.84
2018-02-08T06:43:50.590Z,6.89
2018-02-08T06:46:18.185Z,6.98
2018-02-08T06:48:45.909Z,7.11
2018-02-08T06:51:13.469Z,7.31
2018-02-08T06:53:41.249Z,7.62
2018-02-08T06:56:08.832Z,7.85
2018-02-08T06:58:36.401Z,8.35
2018-02-08T07:01:03.975Z,8.84
2018-02-08T07:03:31.533Z,9.11
2018-02-08T07:05:59.089Z,10.11
2018-02-08T07:08:26.657Z,11.36
2018-02-08T07:10:54.555Z,11.03
2018-02-08T07:13:22.119Z,11.09
2018-02-08T07:15:49.916Z,11.40
2018-02-08T07:18:17.488Z,11.69
2018-02-08T07:20:45.161Z,11.19
2018-02-08T07:23:12.722Z,10.98
2018-02-08T07:25:40.454Z,11.33
2018-02-08T07:28:08.017Z,11.73
2018-02-08T07:30:35.562Z,12.65
2018-02-08T07:33:03.134Z,12.94
2018-02-08T07:35:30.767Z,12.84
2018-02-08T07:37:58.326Z,13.16
2018-02-08T07:40:25.902Z,13.48
2018-02-08T07:42:53.706Z,14.08
2018-02-08T07:45:21.525Z,14.33
2018-02-08T07:47:49.155Z,14.71
2018-02-08T07:50:16.962Z,15.35
2018-02-08T07:52:44.710Z,16.03
2018-02-08T07:55:12.269Z,16.78
2018-02-08T07:57:39.842Z,16.46
2018-02-08T08:00:07.538Z,15.44
2018-02-08T08:02:35.079Z,14.59
2018-02-08T08:05:02.654Z,14.44
2018-02-08T08:07:30.389Z,15.06
2018-02-08T08:09:57.991Z,15.47
2018-02-08T08:12:25.724Z,16.42
2018-02-08T08:14:53.286Z,16.25
2018-02-08T08:17:20.983Z,15.85
2018-02-08T08:19:48.545Z,14.89
2018-02-08T08:22:16.259Z,13.79
2018-02-08T08:24:44.013Z,13.04
2018-02-08T08:27:11.831Z,12.58
2018-02-08T08:29:39.650Z,12.50
2018-02-08T08:32:07.238Z,12.49
2018-02-08T08:34:34.986Z,12.40
2018-02-08T08:37:02.552Z,12.83
2018-02-08T08:39:30.112Z,13.86
2018-02-08T08:41:57.836Z,14.84
2018-02-08T08:44:25.407Z,15.99
2018-02-08T08:46:53.176Z,16.69
2018-02-08T08:49:20.894Z,17.16
2018-02-08T08:51:48.461Z,17.45
2018-02-08T08:54:16.232Z,17.68
2018-02-08T08:56:43.793Z,16.41
2018-02-08T08:59:11.361Z,15.20
2018-02-08T09:01:38.934Z,14.01
2018-02-08T09:04:06.702Z,12.94
2018-02-08T09:06:34.521Z,12.77
2018-02-08T09:09:02.095Z,12.76
2018-02-08T09:11:29.857Z,12.53
2018-02-08T09:13:57.418Z,12.72
2018-02-08T09:16:24.978Z,13.20
2018-02-08T09:18:52.554Z,14.19
2018-02-08T09:21:20.173Z,15.44
2018-02-08T09:23:47.743Z,15.93
2018-02-08T09:26:15.322Z,15.47
2018-02-08T09:28:42.896Z,15.00
2018-02-08T09:31:10.470Z,14.90
2018-02-08T09:33:38.040Z,15.76
2018-02-08T09:36:05.624Z,16.45
2018-02-08T09:38:33.198Z,16.08
2018-02-08T09:41:00.760Z,15.58
2018-02-08T09:43:28.587Z,15.61
2018-02-08T09:45:56.154Z,16.10
2018-02-08T09:48:23.708Z,16.57
2018-02-08T09:50:51.440Z,17.52
2018-02-08T09:53:18.999Z,18.21
2018-02-08T09:55:46.738Z,18.97
2018-02-08T09:58:14.455Z,19.66
2018-02-08T10:00:42.027Z,20.19
2018-02-08T10:03:09.594Z,20.07
2018-02-08T10:05:37.348Z,19.71
2018-02-08T10:08:04.930Z,18.57
2018-02-08T10:10:32.524Z,17.78
2018-02-08T10:13:00.098Z,17.98
2018-02-08T10:15:27.812Z,18.08
2018-02-08T10:17:55.417Z,18.80
2018-02-08T10:20:22.993Z,19.64
2018-02-08T10:22:50.582Z,19.74
2018-02-08T10:25:18.188Z,19.37
2018-02-08T10:27:46.010Z,19.04
2018-02-08T10:30:13.607Z,18.64
2018-02-08T10:32:41.174Z,17.93
2018-02-08T10:35:08.964Z,17.34
2018-02-08T10:37:36.786Z,17.46
2018-02-08T10:40:04.601Z,18.11
2018-02-08T10:42:32.419Z,18.58
2018-02-08T10:45:00.238Z,18.41
2018-02-08T10:47:27.818Z,18.51
2018-02-08T10:49:55.556Z,19.07
2018-02-08T10:52:23.124Z,19.22
2018-02-08T10:54:50.910Z,19.38
2018-02-08T10:57:18.511Z,19.39
2018-02-08T10:59:46.076Z,19.48
2018-02-08T11:02:13.630Z,19.58
2018-02-08T11:04:41.178Z,19.42
2018-02-08T11:07:08.749Z,18.94
2018-02-08T11:09:36.323Z,18.88
2018-02-08T11:12:03.896Z,18.89
2018-02-08T11:14:31.466Z,19.04
2018-02-08T11:16:59.031Z,18.88
2018-02-08T11:19:26.626Z,19.02
2018-02-08T11:21:54.193Z,19.64
2018-02-08T11:24:21.750Z,19.46
2018-02-08T11:26:49.318Z,19.89
2018-02-08T11:29:17.159Z,20.20
2018-02-08T11:31:44.890Z,20.35
2018-02-08T11:34:12.696Z,20.58
2018-02-08T11:36:40.304Z,20.90
2018-02-08T11:39:07.877Z,21.06
2018-02-08T11:41:35.442Z,20.66
2018-02-08T11:44:03.049Z,20.75
2018-02-08T11:46:30.765Z,20.73
2018-02-08T11:48:58.346Z,20.91
2018-02-08T11:51:26.125Z,21.39
2018-02-08T11:53:53.691Z,21.65
2018-02-08T11:56:21.449Z,21.37
2018-02-08T11:58:49.066Z,21.54
2018-02-08T12:01:16.622Z,21.16
2018-02-08T12:03:44.305Z,21.15
2018-02-08T12:06:11.871Z,21.19
2018-02-08T12:08:39.647Z,20.83
2018-02-08T12:11:07.214Z,20.24
2018-02-08T12:13:34.830Z,19.82
2018-02-08T12:16:02.492Z,19.52
2018-02-08T12:18:30.220Z,19.57
2018-02-08T12:20:57.917Z,19.25
2018-02-08T12:23:25.477Z,18.99
2018-02-08T12:25:53.045Z,18.93
2018-02-08T12:28:20.775Z,18.84
2018-02-08T12:30:48.609Z,18.90
2018-02-08T12:33:16.260Z,19.43
2018-02-08T12:35:43.821Z,19.72
2018-02-08T12:38:11.618Z,19.70
2018-02-08T12:40:39.386Z,19.85
2018-02-08T12:43:06.953Z,20.17
2018-02-08T12:45:34.514Z,19.63
2018-02-08T12:48:02.335Z,19.42
2018-02-08T12:50:29.946Z,19.46
2018-02-08T12:52:57.505Z,19.49
2018-02-08T12:55:25.290Z,19.55
2018-02-08T12:57:53.108Z,18.98
2018-02-08T13:00:21.028Z,18.99
2018-02-08T13:02:48.847Z,19.03
2018-02-08T13:05:16.765Z,19.41
2018-02-08T13:07:44.373Z,19.65
2018-02-08T13:10:12.193Z,19.57
2018-02-08T13:12:39.806Z,19.81
2018-02-08T13:15:07.518Z,19.73
2018-02-08T13:17:35.234Z,19.43
2018-02-08T13:20:02.965Z,19.45
2018-02-08T13:22:30.582Z,18.98
2018-02-08T13:24:58.131Z,19.03
2018-02-08T13:27:25.690Z,18.78
2018-02-08T13:29:53.264Z,19.06
2018-02-08T13:32:20.857Z,18.87
2018-02-08T13:34:48.681Z,18.73
2018-02-08T13:37:16.499Z,18.75
2018-02-08T13:39:44.150Z,19.34
2018-02-08T13:42:14.701Z,19.62
2018-02-08T13:44:42.261Z,19.93
2018-02-08T13:47:10.483Z,20.34
2018-02-08T13:49:40.595Z,20.23
2018-02-08T13:52:27.997Z,20.05
2018-02-08T13:55:00.946Z,20.17
2018-02-08T13:57:28.563Z,19.83
2018-02-08T14:00:00.877Z,20.34
2018-02-08T14:02:28.481Z,20.21
2018-02-08T14:04:56.046Z,20.16
2018-02-08T14:07:23.618Z,19.85
2018-02-08T14:09:51.357Z,19.33
2018-02-08T14:12:19.176Z,19.23
2018-02-08T14:14:46.718Z,18.28
2018-02-08T14:17:14.282Z,17.68
2018-02-08T14:19:42.000Z,17.90
2018-02-08T14:22:09.717Z,17.74
2018-02-08T14:24:37.668Z,17.60
2018-02-08T14:27:05.488Z,17.34
2018-02-08T14:29:33.119Z,17.14
2018-02-08T14:32:00.675Z,16.46
2018-02-08T14:34:28.230Z,15.34
2018-02-08T14:36:55.861Z,14.42
2018-02-08T14:39:23.677Z,13.70
2018-02-08T14:41:51.494Z,13.54
2018-02-08T14:44:19.117Z,13.48
2018-02-08T14:46:46.931Z,13.48
2018-02-08T14:49:14.497Z,13.27
2018-02-08T14:51:42.056Z,13.17
2018-02-08T14:54:09.885Z,12.59
2018-02-08T14:56:37.702Z,12.01
2018-02-08T14:59:05.521Z,11.70
2018-02-08T15:01:33.340Z,11.44
2018-02-08T15:04:01.059Z,11.29
2018-02-08T15:06:28.636Z,11.11
2018-02-08T15:08:56.394Z,10.87
2018-02-08T15:11:23.977Z,10.67
2018-02-08T15:13:51.542Z,10.51
2018-02-08T15:16:19.102Z,10.36
2018-02-08T15:18:46.847Z,10.34
2018-02-08T15:21:14.404Z,10.33
2018-02-08T15:23:41.993Z,10.22
2018-02-08T15:26:10.924Z,10.22
2018-02-08T15:28:38.570Z,10.06
2018-02-08T15:31:06.414Z,10.13
2018-02-08T15:33:33.968Z,10.09
2018-02-08T15:36:01.704Z,10.11
2018-02-08T15:38:29.572Z,10.18
2018-02-08T15:40:57.277Z,10.24
2018-02-08T15:43:24.833Z,10.27
2018-02-08T15:45:52.379Z,10.19
2018-02-08T15:48:19.937Z,10.03
2018-02-08T15:50:47.685Z,9.99
2018-02-08T15:53:15.254Z,10.02
2018-02-08T15:55:43.043Z,9.92
2018-02-08T15:58:10.760Z,9.76
2018-02-08T16:00:38.580Z,9.67
2018-02-08T16:03:06.202Z,9.64
2018-02-08T16:05:33.913Z,9.59
2018-02-08T16:08:01.735Z,9.62
2018-02-08T16:10:29.306Z,9.59
2018-02-08T16:12:56.878Z,9.49
2018-02-08T16:15:24.442Z,9.46
2018-02-08T16:17:52.088Z,9.43
2018-02-08T16:20:19.677Z,9.40
2018-02-08T16:22:47.275Z,9.36
2018-02-08T16:25:15.057Z,9.32
2018-02-08T16:27:42.660Z,9.25
2018-02-08T16:30:10.436Z,9.23
2018-02-08T16:32:38.212Z,9.09
2018-02-08T16:35:05.826Z,9.01
2018-02-08T16:37:33.446Z,8.98
2018-02-08T16:40:01.007Z,8.89
2018-02-08T16:42:28.565Z,8.82
2018-02-08T16:44:56.133Z,8.82
2018-02-08T16:47:23.700Z,8.93
2018-02-08T16:49:51.277Z,9.02
2018-02-08T16:52:18.946Z,9.02
2018-02-08T16:54:46.563Z,9.08
2018-02-08T16:57:14.139Z,9.04
2018-02-08T16:59:41.739Z,9.02
2018-02-08T17:02:09.315Z,9.00
2018-02-08T17:04:37.146Z,8.96
2018-02-08T17:07:04.753Z,9.03
2018-02-08T17:09:32.493Z,9.09
2018-02-08T17:12:00.399Z,9.06
2018-02-08T17:14:28.220Z,9.03
2018-02-08T17:16:55.933Z,9.03
2018-02-08T17:19:23.654Z,8.96
2018-02-08T17:21:51.245Z,8.89
2018-02-08T17:24:18.961Z,8.85
2018-02-08T17:26:46.694Z,8.76
2018-02-08T17:29:14.438Z,8.73
2018-02-08T17:31:42.010Z,8.75
2018-02-08T17:34:09.680Z,8.70
2018-02-08T17:36:37.373Z,8.67
2018-02-08T17:39:05.018Z,8.65
2018-02-08T17:41:32.566Z,8.59
2018-02-08T17:44:00.129Z,8.50
2018-02-08T17:46:27.742Z,8.39
2018-02-08T17:48:55.309Z,8.28
2018-02-08T17:51:22.870Z,8.29
2018-02-08T17:53:50.579Z,8.21
2018-02-08T17:56:18.211Z,8.24
2018-02-08T17:58:45.932Z,8.26
2018-02-08T18:01:13.762Z,8.25
2018-02-08T18:03:41.327Z,8.24
2018-02-08T18:06:08.886Z,8.21
2018-02-08T18:08:36.461Z,8.18
2018-02-08T18:11:04.127Z,8.20
2018-02-08T18:13:31.746Z,8.24
2018-02-08T18:15:59.396Z,8.24
2018-02-08T18:18:27.190Z,8.24
2018-02-08T18:20:55.009Z,8.28
2018-02-08T18:23:22.824Z,8.29
2018-02-08T18:25:50.417Z,8.27
2018-02-08T18:28:18.009Z,8.30
2018-02-08T18:30:45.668Z,8.26
2018-02-08T18:33:13.366Z,8.22
2018-02-08T18:35:40.938Z,8.14
2018-02-08T18:38:08.729Z,8.10
2018-02-08T18:40:36.327Z,8.04
2018-02-08T18:43:03.951Z,8.00
2018-02-08T18:45:31.534Z,7.94
2018-02-08T18:47:59.192Z,7.86
2018-02-08T18:50:26.814Z,7.84
2018-02-08T18:52:54.524Z,7.78
2018-02-08T18:55:22.118Z,7.76
2018-02-08T18:57:49.687Z,7.66
2018-02-08T19:00:17.262Z,7.67
2018-02-08T19:02:44.901Z,7.61
2018-02-08T19:05:12.726Z,7.53
2018-02-08T19:07:40.292Z,7.50
2018-02-08T19:10:07.850Z,7.51
2018-02-08T19:12:35.582Z,7.50
2018-02-08T19:15:03.151Z,7.53
2018-02-08T19:17:30.807Z,7.46
2018-02-08T19:19:58.382Z,7.27
2018-02-08T19:22:26.000Z,7.32
2018-02-08T19:24:53.737Z,7.27
2018-02-08T19:27:21.325Z,7.31
2018-02-08T19:29:48.902Z,7.33
2018-02-08T19:32:16.470Z,7.20
2018-02-08T19:34:44.201Z,7.20
2018-02-08T19:37:11.770Z,7.14
2018-02-08T19:39:39.578Z,7.06
2018-02-08T19:42:07.214Z,7.03
2018-02-08T19:44:35.015Z,7.02
2018-02-08T19:47:02.634Z,6.86
2018-02-08T19:49:30.212Z,6.98
2018-02-08T19:51:57.858Z,6.97
2018-02-08T19:54:25.586Z,6.93
2018-02-08T19:56:53.422Z,6.92
2018-02-08T19:59:21.029Z,6.89
2018-02-08T20:01:48.599Z,6.92
2018-02-08T20:04:16.158Z,6.84
2018-02-08T20:06:43.725Z,6.67
2018-02-08T20:09:11.496Z,6.53
2018-02-08T20:11:39.203Z,6.43
2018-02-08T20:14:12.303Z,6.31
2018-02-08T20:16:39.959Z,6.31
2018-02-08T20:19:07.572Z,6.31
2018-02-08T20:21:35.214Z,6.24
2018-02-08T20:24:02.794Z,6.26
2018-02-08T20:26:30.540Z,6.33
2018-02-08T20:28:58.557Z,6.36
2018-02-08T20:31:28.183Z,6.39
2018-02-08T20:33:55.756Z,6.32
2018-02-08T20:36:23.322Z,6.17
2018-02-08T20:38:51.137Z,6.07
2018-02-08T20:41:18.770Z,6.13
2018-02-08T20:43:46.337Z,6.11
2018-02-08T20:46:14.001Z,6.06
2018-02-08T20:48:41.599Z,6.14
2018-02-08T20:51:09.305Z,6.08
2018-02-08T20:53:37.222Z,6.08
2018-02-08T20:56:04.786Z,6.03
2018-02-08T20:58:32.374Z,6.01
2018-02-08T21:01:00.067Z,6.07
2018-02-08T21:03:27.819Z,6.04
2018-02-08T21:05:55.536Z,6.03
2018-02-08T21:08:23.114Z,5.98
2018-02-08T21:10:50.663Z,5.97
2018-02-08T21:13:18.271Z,5.96
2018-02-08T21:15:45.834Z,6.01
2018-02-08T21:18:13.391Z,6.10
2018-02-08T21:20:41.246Z,6.10
2018-02-08T21:23:08.963Z,6.03
2018-02-08T21:25:36.780Z,6.04
2018-02-08T21:28:04.604Z,6.08
2018-02-08T21:30:32.417Z,6.11
2018-02-08T21:32:59.986Z,6.11
2018-02-08T21:35:27.647Z,6.11
2018-02-08T21:37:55.281Z,6.10
2018-02-08T21:40:23.089Z,6.14
2018-02-08T21:42:50.654Z,6.15
2018-02-08T21:45:18.238Z,6.22
2018-02-08T21:47:45.943Z,6.25
2018-02-08T21:50:13.762Z,6.27
2018-02-08T21:52:41.400Z,6.34
2018-02-08T21:55:08.968Z,6.35
2018-02-08T21:57:36.716Z,6.31
2018-02-08T22:00:04.320Z,6.34
2018-02-08T22:02:31.893Z,6.35
2018-02-08T22:04:59.697Z,6.39
2018-02-08T22:07:27.516Z,6.36
2018-02-08T22:09:55.219Z,6.31
2018-02-08T22:12:22.793Z,6.38
2018-02-08T22:14:50.672Z,6.36
2018-02-08T22:17:18.274Z,6.34
2018-02-08T22:19:45.831Z,6.34
2018-02-08T22:22:13.403Z,6.33
2018-02-08T22:24:40.961Z,6.29
2018-02-08T22:27:08.738Z,6.25
2018-02-08T22:29:36.293Z,6.29
2018-02-08T22:32:04.099Z,6.28
2018-02-08T22:34:31.657Z,6.27
2018-02-08T22:36:59.219Z,6.29
2018-02-08T22:39:26.951Z,6.26
2018-02-08T22:41:54.586Z,6.21
2018-02-08T22:44:22.154Z,6.18
2018-02-08T22:46:49.721Z,6.17
2018-02-08T22:49:17.282Z,6.20
2018-02-08T22:51:44.873Z,6.29
2018-02-08T22:54:12.642Z,6.32
2018-02-08T22:56:40.223Z,6.31
2018-02-08T22:59:07.794Z,6.29
2018-02-08T23:01:35.548Z,6.27
2018-02-08T23:04:03.329Z,6.33
2018-02-08T23:06:30.910Z,6.40
2018-02-08T23:08:58.497Z,6.48
2018-02-08T23:11:26.065Z,6.47
2018-02-08T23:13:53.629Z,6.52
2018-02-08T23:16:21.229Z,6.55
2018-02-08T23:18:48.783Z,6.57
2018-02-08T23:21:16.346Z,6.54
2018-02-08T23:23:44.071Z,6.55
2018-02-08T23:26:11.648Z,6.49
2018-02-08T23:28:39.250Z,6.49
2018-02-08T23:31:06.810Z,6.49
2018-02-08T23:33:34.391Z,6.44
2018-02-08T23:36:01.954Z,6.39
2018-02-08T23:38:29.518Z,6.33
2018-02-08T23:40:57.188Z,6.35
2018-02-08T23:43:24.738Z,6.38
2018-02-08T23:45:52.532Z,6.39
2018-02-08T23:48:20.163Z,6.36
2018-02-08T23:50:47.738Z,6.35
2018-02-08T23:53:15.293Z,6.35
2018-02-08T23:55:42.889Z,6.36
2018-02-08T23:58:10.621Z,6.30
